»·PEaware :: UAL501 KLAX-KLAS

UAL501 :: KLAX-KLAS

FLIGHT INFORMATION

Flight Status: Arrived
Operator:
United Airlines
More flights by this operator :: More flights under this callsign
Pilot: Joshua C. (28528)
Aircraft: BOEING 737-700
(B737)
More flights by this aircraft type
Origin: KLAX Los Angeles Intl
United States
Destination: KLAS McCarran Intl
United States
More flights between these airports :: More routes between these airports
Route: +ORCKA4 MISEN KEPEC6
File this flight plan on PilotEdge
Remarks:
Altitude:
(Current/Filed)
28,000ft
Speed:
(Current/Filed)
450kts
Departed: 22-Mar-20 05:39 PM
Arrived: 22-Mar-20 06:28 PM
Distance/Time
Traveled:
205nm/0:49
Distance/Time
To Go:
Arrived

Flight Plot

Page will automatically refresh every two minutes.

Flight plan parsing failed; only flown route is shown


Map Options




Map Legend


Flown Route
Filed Route
Departure Airport
Arrival Airport
Navaid (VOR, NDB)
Fix

Horizontal Profiles

Position Reports

Time Latitude Longitude Heading Altitude Ground
Speed
22-Mar-20 17:11 33.939903 -118.403823 309 120ft 0kts
22-Mar-20 17:12 33.939903 -118.403823 309 120ft 0kts
22-Mar-20 17:13 33.939903 -118.403823 309 120ft 0kts
22-Mar-20 17:14 33.939903 -118.403823 309 120ft 0kts
22-Mar-20 17:15 33.939903 -118.403823 309 120ft 0kts
22-Mar-20 17:16 33.939903 -118.403823 309 120ft 0kts
22-Mar-20 17:17 33.939903 -118.403823 309 120ft 0kts
22-Mar-20 17:18 33.939903 -118.403823 309 120ft 0kts
22-Mar-20 17:19 33.939903 -118.403823 309 120ft 0kts
22-Mar-20 17:20 33.939903 -118.403823 309 120ft 0kts
22-Mar-20 17:21 33.939903 -118.403823 309 120ft 0kts
22-Mar-20 17:22 33.939903 -118.403823 309 120ft 0kts
22-Mar-20 17:23 33.939903 -118.403823 309 120ft 0kts
22-Mar-20 17:24 33.939903 -118.403823 309 120ft 0kts
22-Mar-20 17:25 33.939903 -118.403823 309 120ft 0kts
22-Mar-20 17:26 33.939903 -118.403823 309 120ft 0kts
22-Mar-20 17:27 33.939903 -118.403823 309 120ft 0kts
22-Mar-20 17:28 33.939591 -118.403367 315 119ft 1kts
22-Mar-20 17:29 33.939303 -118.403447 78 119ft 0kts
22-Mar-20 17:30 33.939315 -118.403381 78 119ft 0kts
22-Mar-20 17:31 33.939318 -118.403358 79 119ft 2kts
22-Mar-20 17:32 33.938930 -118.398643 83 113ft 28kts
22-Mar-20 17:33 33.939954 -118.388421 83 103ft 31kts
22-Mar-20 17:34 33.940710 -118.381062 83 99ft 0kts
22-Mar-20 17:35 33.940722 -118.380944 83 99ft 2kts
22-Mar-20 17:36 33.940741 -118.380760 83 99ft 0kts
22-Mar-20 17:37 33.939920 -118.380175 230 99ft 12kts
22-Mar-20 17:38 33.936454 -118.413750 258 1221ft 185kts
22-Mar-20 17:39 33.898884 -118.448477 166 3858ft 186kts
22-Mar-20 17:40 33.847559 -118.449170 229 4988ft 223kts
22-Mar-20 17:41 33.830770 -118.526329 262 5000ft 241kts
22-Mar-20 17:42 33.826966 -118.608854 305 5190ft 242kts
22-Mar-20 17:43 33.882825 -118.590566 62 8142ft 286kts
22-Mar-20 17:44 33.917298 -118.502457 65 9975ft 297kts
22-Mar-20 17:45 33.952988 -118.409911 62 11976ft 337kts
22-Mar-20 17:46 34.005676 -118.305203 58 14197ft 392kts
22-Mar-20 17:47 34.070644 -118.189903 55 16419ft 428kts
22-Mar-20 17:48 34.137126 -118.072273 55 18578ft 439kts
22-Mar-20 17:49 34.205712 -117.950426 55 20785ft 445kts
22-Mar-20 17:50 34.277396 -117.822760 55 23008ft 468kts
22-Mar-20 17:51 34.351790 -117.689790 55 25223ft 483kts
22-Mar-20 17:52 34.431866 -117.555752 53 27438ft 495kts
22-Mar-20 17:53 34.513967 -117.417882 53 27998ft 502kts
22-Mar-20 17:54 34.595294 -117.280808 54 28000ft 503kts
22-Mar-20 17:55 34.677450 -117.141801 54 27999ft 503kts
22-Mar-20 17:56 34.758270 -117.004525 54 27566ft 488kts
22-Mar-20 17:57 34.835387 -116.873041 54 26710ft 474kts
22-Mar-20 17:58 34.911669 -116.742504 54 25854ft 468kts
22-Mar-20 17:59 34.985041 -116.612375 55 25000ft 462kts
22-Mar-20 18:00 35.057898 -116.483177 55 24142ft 457kts
22-Mar-20 18:01 35.136007 -116.361535 45 23919ft 455kts
22-Mar-20 18:02 35.223884 -116.251758 45 22122ft 442kts
22-Mar-20 18:03 35.309183 -116.144599 45 20208ft 432kts
22-Mar-20 18:04 35.392128 -116.040069 45 18292ft 420kts
22-Mar-20 18:05 35.472488 -115.938480 45 16383ft 409kts
22-Mar-20 18:06 35.551108 -115.838786 45 14824ft 400kts
22-Mar-20 18:07 35.624475 -115.745458 45 13284ft 343kts
22-Mar-20 18:08 35.685251 -115.667823 46 12918ft 307kts
22-Mar-20 18:09 35.747407 -115.595893 30 12920ft 306kts
22-Mar-20 18:10 35.829151 -115.571459 2 12918ft 306kts
22-Mar-20 18:11 35.914263 -115.563588 14 12919ft 306kts
22-Mar-20 18:12 35.983297 -115.506686 55 12023ft 297kts
22-Mar-20 18:13 36.017712 -115.417770 68 10927ft 271kts
22-Mar-20 18:14 36.027362 -115.324916 94 10394ft 276kts
22-Mar-20 18:15 36.020726 -115.231975 95 9009ft 266kts
22-Mar-20 18:16 36.014385 -115.141045 94 8907ft 258kts
22-Mar-20 18:17 35.995293 -115.063052 147 7927ft 220kts
22-Mar-20 18:18 35.940325 -115.070798 201 7917ft 205kts
22-Mar-20 18:19 35.906114 -115.118891 275 7787ft 213kts
22-Mar-20 18:20 35.914509 -115.175292 281 6585ft 210kts
22-Mar-20 18:21 35.928908 -115.244254 308 5110ft 201kts
22-Mar-20 18:22 35.964935 -115.238251 55 4907ft 147kts
22-Mar-20 18:23 35.999007 -115.213867 24 4120ft 141kts
22-Mar-20 18:24 36.034545 -115.193632 24 3257ft 139kts
22-Mar-20 18:25 36.069740 -115.173653 25 2404ft 139kts
22-Mar-20 18:26 36.093646 -115.159900 25 2109ft 45kts
22-Mar-20 18:27 36.095498 -115.156572 101 2093ft 9kts
22-Mar-20 18:28 36.092194 -115.155003 205 2096ft 14kts
22-Mar-20 18:29 36.087204 -115.157603 202 2119ft 21kts
22-Mar-20 18:30 36.081711 -115.154868 125 2120ft 20kts
22-Mar-20 18:31 36.082178 -115.149880 28 2103ft 10kts
22-Mar-20 18:32 36.083099 -115.150545 222 2103ft 0kts
22-Mar-20 18:33 36.083099 -115.150544 222 2103ft 0kts

Navigation Log

Ident Type
Flight plan parsing failed, navigation log unavailable